Time;durP1;ratioP1;P1;durP2;ratioP2;P2;SDS_P1;SDS_P2;PMS_P1;PMS_P2;Temp;Humidity;BMP_temperature;BMP_pressure;BME280_temperature;BME280_humidity;BME280_pressure;Samples;Min_cycle;Max_cycle;Signal;HPM_P1;HPM_P2
2024/02/01 00:01:14;;;;;;;116.33;45.27;;;;;;;;;;5053851;28;20021;-52
2024/02/01 00:03:40;;;;;;;76.80;43.60;;;;;;;;;;5071885;28;20263;-55
2024/02/01 00:06:07;;;;;;;71.67;40.97;;;;;;;;;;5071354;28;20032;-54
2024/02/01 00:08:33;;;;;;;74.80;41.60;;;;;;;;;;5071229;28;20081;-54
2024/02/01 00:11:00;;;;;;;70.60;42.70;;;;;;;;;;5071431;28;20111;-54
2024/02/01 00:13:26;;;;;;;67.40;43.03;;;;;;;;;;5071357;28;20024;-55
2024/02/01 00:15:52;;;;;;;65.07;41.25;;;;;;;;;;5071378;28;20509;-54
2024/02/01 00:18:18;;;;;;;101.47;49.20;;;;;;;;;;5071355;28;20051;-55
2024/02/01 00:20:44;;;;;;;87.53;49.60;;;;;;;;;;5071465;28;20021;-54
2024/02/01 00:23:10;;;;;;;125.97;54.10;;;;;;;;;;5053384;28;20027;-54
2024/02/01 00:25:37;;;;;;;129.20;50.10;;;;;;;;;;5070818;28;20040;-53
2024/02/01 00:28:05;;;;;;;220.03;53.80;;;;;;;;;;5071074;28;20071;-52
2024/02/01 00:30:32;;;;;;;80.55;44.70;;;;;;;;;;5070680;28;20020;-54
2024/02/01 00:32:58;;;;;;;115.28;45.92;;;;;;;;;;5071050;28;20033;-55
2024/02/01 00:35:24;;;;;;;75.13;47.17;;;;;;;;;;5071179;28;20064;-50
2024/02/01 00:37:50;;;;;;;114.73;46.80;;;;;;;;;;5070701;28;20028;-56
2024/02/01 00:40:17;;;;;;;300.00;59.60;;;;;;;;;;5071239;28;20498;-54
2024/02/01 00:42:43;;;;;;;214.18;54.60;;;;;;;;;;5053351;28;20028;-50
2024/02/01 00:45:09;;;;;;;189.80;52.28;;;;;;;;;;5071003;28;20056;-55
2024/02/01 00:47:35;;;;;;;161.47;52.37;;;;;;;;;;5071245;28;20036;-56
2024/02/01 00:50:02;;;;;;;183.90;55.13;;;;;;;;;;5071299;28;20028;-55
2024/02/01 00:52:28;;;;;;;215.02;52.50;;;;;;;;;;5052526;28;20421;-55
2024/02/01 00:54:54;;;;;;;240.82;59.28;;;;;;;;;;5052761;28;20021;-53
2024/02/01 00:57:20;;;;;;;227.23;57.17;;;;;;;;;;5070911;28;20490;-51
2024/02/01 00:59:46;;;;;;;261.40;55.83;;;;;;;;;;5070834;28;20371;-51
2024/02/01 01:02:14;;;;;;;93.83;49.90;;;;;;;;;;5070976;28;20025;-55
2024/02/01 01:04:40;;;;;;;107.35;49.25;;;;;;;;;;5071183;28;20043;-51
2024/02/01 01:07:06;;;;;;;135.73;50.38;;;;;;;;;;5070736;28;20619;-56
2024/02/01 01:09:33;;;;;;;116.50;49.10;;;;;;;;;;5069988;28;20040;-54
2024/02/01 01:11:59;;;;;;;96.17;45.73;;;;;;;;;;5070850;28;20082;-56
2024/02/01 01:14:25;;;;;;;80.20;42.33;;;;;;;;;;5070885;28;20029;-54
2024/02/01 01:16:51;;;;;;;89.70;42.57;;;;;;;;;;5070665;28;20036;-56
2024/02/01 01:19:17;;;;;;;93.07;43.30;;;;;;;;;;5070240;28;20087;-55
2024/02/01 01:21:44;;;;;;;90.72;44.70;;;;;;;;;;5070886;28;20379;-50
2024/02/01 01:24:10;;;;;;;136.67;49.77;;;;;;;;;;5070941;28;20402;-54
2024/02/01 01:26:36;;;;;;;102.38;47.53;;;;;;;;;;5070445;28;20057;-54
2024/02/01 01:29:02;;;;;;;110.35;47.63;;;;;;;;;;5052882;28;20047;-54
2024/02/01 01:31:28;;;;;;;103.32;47.67;;;;;;;;;;5070747;28;20035;-50
2024/02/01 01:33:55;;;;;;;100.10;44.40;;;;;;;;;;5070771;28;20524;-52
2024/02/01 01:36:21;;;;;;;99.82;47.75;;;;;;;;;;5070410;28;20048;-51
2024/02/01 01:38:47;;;;;;;151.93;55.03;;;;;;;;;;5070565;28;20032;-56
2024/02/01 01:41:13;;;;;;;100.70;36.17;;;;;;;;;;5070524;28;20021;-54
2024/02/01 01:43:39;;;;;;;103.97;46.67;;;;;;;;;;5073004;28;20041;-52
2024/02/01 01:46:06;;;;;;;185.97;58.87;;;;;;;;;;5073745;28;20069;-57
2024/02/01 01:48:32;;;;;;;154.23;53.47;;;;;;;;;;5073979;28;20028;-57
2024/02/01 01:50:59;;;;;;;210.20;54.42;;;;;;;;;;5074310;28;20111;-52
2024/02/01 01:53:29;;;;;;;175.70;55.55;;;;;;;;;;5073654;28;20084;-53
2024/02/01 01:55:57;;;;;;;208.63;59.83;;;;;;;;;;5055916;28;20035;-56
2024/02/01 01:58:23;;;;;;;166.10;53.47;;;;;;;;;;5074279;28;20024;-51
2024/02/01 02:00:49;;;;;;;147.48;55.33;;;;;;;;;;5073869;28;20024;-56
2024/02/01 02:03:16;;;;;;;129.50;56.53;;;;;;;;;;5073949;28;20403;-54
2024/02/01 02:05:42;;;;;;;151.02;52.92;;;;;;;;;;5073828;28;20282;-49
2024/02/01 02:08:08;;;;;;;229.50;60.50;;;;;;;;;;5055893;28;20028;-55
2024/02/01 02:10:34;;;;;;;160.13;60.13;;;;;;;;;;5073279;28;20032;-57
2024/02/01 02:13:01;;;;;;;158.77;60.08;;;;;;;;;;5055478;28;20024;-51
2024/02/01 02:15:33;;;;;;;291.17;65.95;;;;;;;;;;5055006;28;20530;-51
2024/02/01 02:17:59;;;;;;;327.42;70.63;;;;;;;;;;5073701;28;20032;-49
2024/02/01 02:20:26;;;;;;;344.33;74.30;;;;;;;;;;5073543;28;20036;-50
2024/02/01 02:22:54;;;;;;;;;;;;;;;;;;5074095;28;20086;-53
2024/02/01 02:25:21;;;;;;;280.88;72.78;;;;;;;;;;5055119;28;19908;-56
2024/02/01 02:27:47;;;;;;;290.48;75.80;;;;;;;;;;5073091;28;20024;-51
2024/02/01 02:30:14;;;;;;;290.37;74.07;;;;;;;;;;5054965;28;20032;-50
2024/02/01 02:32:40;;;;;;;248.40;71.40;;;;;;;;;;5073614;28;20024;-53
2024/02/01 02:35:12;;;;;;;227.20;72.43;;;;;;;;;;5072988;28;20024;-54
2024/02/01 02:37:48;;;;;;;371.98;86.55;;;;;;;;;;5055229;28;20032;-56
2024/02/01 02:40:15;;;;;;;282.23;79.70;;;;;;;;;;5072915;28;20097;-56
2024/02/01 02:42:42;;;;;;;264.80;77.47;;;;;;;;;;5038179;28;20035;-56
2024/02/01 02:45:08;;;;;;;207.77;72.30;;;;;;;;;;5072844;28;20052;-53
2024/02/01 02:47:35;;;;;;;352.17;86.57;;;;;;;;;;5055045;28;20422;-54
2024/02/01 02:50:01;;;;;;;211.20;76.00;;;;;;;;;;5073235;28;20063;-51
2024/02/01 02:52:27;;;;;;;207.70;74.13;;;;;;;;;;5055180;28;20028;-55
2024/02/01 02:54:54;;;;;;;175.02;68.53;;;;;;;;;;5054295;28;20263;-56
2024/02/01 02:57:20;;;;;;;224.13;78.03;;;;;;;;;;5054840;28;20081;-50
2024/02/01 02:59:46;;;;;;;205.60;74.97;;;;;;;;;;5054818;28;20025;-55
2024/02/01 03:02:12;;;;;;;213.98;71.68;;;;;;;;;;5072726;28;20086;-56
2024/02/01 03:04:38;;;;;;;229.50;76.57;;;;;;;;;;5037098;28;20050;-55
2024/02/01 03:07:08;;;;;;;344.27;85.20;;;;;;;;;;5054050;28;20032;-49
2024/02/01 03:09:37;;;;;;;295.17;78.97;;;;;;;;;;5054426;28;20271;-53
2024/02/01 03:12:06;;;;;;;346.83;87.45;;;;;;;;;;5072407;28;20025;-50
2024/02/01 03:14:41;;;;;;;275.42;76.72;;;;;;;;;;5072086;28;20486;-49
2024/02/01 03:17:09;;;;;;;167.50;71.75;;;;;;;;;;5072203;28;20031;-56
2024/02/01 03:19:39;;;;;;;144.30;72.22;;;;;;;;;;5072220;28;20028;-51
2024/02/01 03:22:05;;;;;;;195.55;78.05;;;;;;;;;;5054681;28;20481;-49
2024/02/01 03:24:32;;;;;;;109.07;67.30;;;;;;;;;;5072219;28;20103;-55
2024/02/01 03:27:01;;;;;;;132.85;74.35;;;;;;;;;;5053880;28;20495;-52
2024/02/01 03:29:35;;;;;;;117.78;68.47;;;;;;;;;;5071776;28;20029;-52
2024/02/01 03:32:05;;;;;;;138.70;69.40;;;;;;;;;;5054523;28;20078;-52
2024/02/01 03:34:35;;;;;;;106.38;63.95;;;;;;;;;;5072359;28;20418;-54
2024/02/01 03:37:01;;;;;;;111.43;62.97;;;;;;;;;;5071766;28;20387;-55
2024/02/01 03:39:29;;;;;;;110.23;60.83;;;;;;;;;;5071853;28;20503;-52
2024/02/01 03:41:56;;;;;;;99.88;62.10;;;;;;;;;;5054413;28;20375;-49
2024/02/01 03:44:23;;;;;;;109.40;63.10;;;;;;;;;;5071714;28;20036;-50
2024/02/01 03:46:51;;;;;;;128.48;66.20;;;;;;;;;;5071881;28;20033;-55
2024/02/01 03:49:19;;;;;;;195.45;69.60;;;;;;;;;;5053628;28;20036;-51
2024/02/01 03:51:45;;;;;;;188.18;73.63;;;;;;;;;;5071532;28;20033;-50
2024/02/01 03:54:12;;;;;;;145.63;74.50;;;;;;;;;;5060075;28;20449;-51
2024/02/01 03:56:38;;;;;;;139.73;72.13;;;;;;;;;;5071658;28;20387;-52
2024/02/01 03:59:08;;;;;;;111.00;67.45;;;;;;;;;;5071557;28;20123;-55
2024/02/01 04:01:34;;;;;;;97.30;61.17;;;;;;;;;;5071554;28;20032;-54
2024/02/01 04:04:00;;;;;;;98.50;60.90;;;;;;;;;;5053434;28;20024;-52
2024/02/01 04:06:27;;;;;;;97.87;59.83;;;;;;;;;;5071685;28;20048;-56
2024/02/01 04:08:54;;;;;;;112.95;67.43;;;;;;;;;;5071827;28;20028;-51
2024/02/01 04:11:21;;;;;;;229.80;93.85;;;;;;;;;;5070891;28;20028;-55
2024/02/01 04:13:47;;;;;;;184.15;82.40;;;;;;;;;;5071271;28;20521;-54
2024/02/01 04:16:13;;;;;;;239.75;97.55;;;;;;;;;;5071286;28;20070;-51
2024/02/01 04:18:39;;;;;;;190.52;74.00;;;;;;;;;;5071687;28;20025;-56
2024/02/01 04:21:10;;;;;;;450.77;99.83;;;;;;;;;;5071291;28;20054;-55
2024/02/01 04:23:37;;;;;;;516.70;105.88;;;;;;;;;;5071581;28;20578;-49
2024/02/01 04:26:04;;;;;;;411.25;89.20;;;;;;;;;;5071221;28;20023;-51
2024/02/01 04:28:32;;;;;;;432.95;101.88;;;;;;;;;;5071336;28;20066;-50
2024/02/01 04:31:01;;;;;;;545.95;110.78;;;;;;;;;;5070891;28;20071;-52
2024/02/01 04:33:28;;;;;;;555.78;106.25;;;;;;;;;;5071711;28;20124;-51
2024/02/01 04:35:55;;;;;;;417.23;93.40;;;;;;;;;;5070989;28;20131;-55
2024/02/01 04:38:21;;;;;;;300.23;74.73;;;;;;;;;;5053205;28;20039;-55
2024/02/01 04:40:47;;;;;;;177.70;72.45;;;;;;;;;;5053208;28;20754;-52
2024/02/01 04:43:14;;;;;;;453.85;105.53;;;;;;;;;;5071181;28;20028;-50
2024/02/01 04:45:40;;;;;;;344.87;94.53;;;;;;;;;;5070914;28;20497;-50
2024/02/01 04:48:10;;;;;;;329.73;85.77;;;;;;;;;;5070847;28;20090;-50
2024/02/01 04:50:39;;;;;;;219.73;77.07;;;;;;;;;;5071260;28;20301;-51
2024/02/01 04:53:08;;;;;;;249.95;87.00;;;;;;;;;;5036758;28;20406;-53
2024/02/01 04:55:35;;;;;;;150.00;73.55;;;;;;;;;;5053175;28;20081;-47
2024/02/01 04:58:01;;;;;;;137.20;70.70;;;;;;;;;;5071004;28;20024;-47
2024/02/01 05:00:28;;;;;;;140.20;71.47;;;;;;;;;;5036187;28;20125;-54
2024/02/01 05:02:54;;;;;;;;;;;;;;;;;;5053969;28;20104;-55
2024/02/01 05:05:20;;;;;;;142.55;68.00;;;;;;;;;;5053180;28;19908;-51
2024/02/01 05:07:47;;;;;;;175.40;70.30;;;;;;;;;;5071231;28;20028;-52
2024/02/01 05:10:13;;;;;;;108.82;65.43;;;;;;;;;;5077282;22;20029;-46
2024/02/01 05:12:40;;;;;;;107.78;65.45;;;;;;;;;;5091257;28;20029;-48
2024/02/01 05:15:07;;;;;;;112.97;68.25;;;;;;;;;;5091137;28;20032;-45
2024/02/01 05:17:33;;;;;;;114.00;62.28;;;;;;;;;;5092474;28;20073;-45
2024/02/01 05:19:59;;;;;;;143.75;70.43;;;;;;;;;;5095586;28;20062;-45
2024/02/01 05:22:29;;;;;;;121.93;68.32;;;;;;;;;;5094045;28;20082;-47
2024/02/01 05:24:55;;;;;;;113.18;68.85;;;;;;;;;;5093981;28;20482;-45
2024/02/01 05:27:21;;;;;;;109.65;66.38;;;;;;;;;;5093834;28;20052;-47
2024/02/01 05:29:51;;;;;;;114.97;67.37;;;;;;;;;;5095248;28;20127;-45
2024/02/01 05:32:17;;;;;;;108.28;63.45;;;;;;;;;;5095151;28;20406;-45
2024/02/01 05:34:46;;;;;;;102.78;64.47;;;;;;;;;;5095164;28;20098;-45
2024/02/01 05:37:13;;;;;;;120.78;68.47;;;;;;;;;;5094881;28;20112;-46
2024/02/01 05:39:44;;;;;;;112.28;65.07;;;;;;;;;;5093782;28;20028;-45
2024/02/01 05:42:14;;;;;;;102.47;60.88;;;;;;;;;;5093834;28;20051;-45
2024/02/01 05:44:40;;;;;;;115.53;64.25;;;;;;;;;;5093671;28;20028;-45
2024/02/01 05:47:06;;;;;;;112.57;63.92;;;;;;;;;;5093409;28;20061;-48
2024/02/01 05:49:33;;;;;;;113.27;65.40;;;;;;;;;;5094837;28;20071;-48
2024/02/01 05:52:03;;;;;;;105.05;62.50;;;;;;;;;;5094719;28;20617;-45
2024/02/01 05:54:29;;;;;;;113.45;66.55;;;;;;;;;;5094892;28;20502;-47
2024/02/01 05:56:55;;;;;;;116.03;67.33;;;;;;;;;;5094564;28;20020;-49
2024/02/01 05:59:22;;;;;;;121.53;67.27;;;;;;;;;;5093406;28;20081;-50
2024/02/01 06:01:48;;;;;;;115.75;65.55;;;;;;;;;;5093051;28;20032;-51
2024/02/01 06:04:15;;;;;;;122.03;70.50;;;;;;;;;;5094672;28;20048;-48
2024/02/01 06:06:46;;;;;;;111.07;64.40;;;;;;;;;;5094291;28;20020;-47
2024/02/01 06:09:12;;;;;;;114.20;65.43;;;;;;;;;;5093121;28;20028;-45
2024/02/01 06:11:42;;;;;;;109.65;63.45;;;;;;;;;;5094195;28;20123;-49
2024/02/01 06:14:09;;;;;;;100.93;59.58;;;;;;;;;;5093276;28;20039;-47
2024/02/01 06:16:35;;;;;;;104.10;62.47;;;;;;;;;;5094295;28;20023;-48
2024/02/01 06:19:02;;;;;;;105.97;63.45;;;;;;;;;;5094367;28;20074;-46
2024/02/01 06:21:31;;;;;;;114.93;63.08;;;;;;;;;;5094106;28;20032;-46
2024/02/01 06:24:00;;;;;;;104.57;61.70;;;;;;;;;;5094256;28;20405;-48
2024/02/01 06:26:27;;;;;;;99.47;63.00;;;;;;;;;;5093938;28;20028;-45
2024/02/01 06:28:56;;;;;;;;;;;;;;;;;;5092131;28;20028;-49
2024/02/01 06:31:24;;;;;;;110.88;67.05;;;;;;;;;;5093988;28;20007;-47
2024/02/01 06:33:51;;;;;;;112.20;65.15;;;;;;;;;;5075743;28;20462;-46
2024/02/01 06:36:19;;;;;;;112.82;63.95;;;;;;;;;;5092399;28;20491;-46
2024/02/01 06:41:46;;;;;;;114.20;63.72;;;;;;;;;;5093837;28;20384;-48
2024/02/01 06:44:24;;;;;;;113.57;64.45;;;;;;;;;;5092500;28;20085;-46
2024/02/01 06:52:02;;;;;;;120.35;66.32;;;;;;;;;;5092397;28;20040;-45
2024/02/01 06:54:39;;;;;;;247.38;78.55;;;;;;;;;;5093662;28;20071;-46
2024/02/01 06:57:13;;;;;;;114.93;70.13;;;;;;;;;;5093419;28;20036;-50
2024/02/01 07:00:06;;;;;;;114.78;63.72;;;;;;;;;;5093511;28;20052;-45
2024/02/01 07:05:25;;;;;;;104.65;60.08;;;;;;;;;;5093205;28;20047;-47
2024/02/01 07:08:02;;;;;;;118.63;65.57;;;;;;;;;;5092305;28;20530;-46
2024/02/01 07:10:43;;;;;;;110.90;61.85;;;;;;;;;;5091878;28;20107;-46
2024/02/01 07:16:13;;;;;;;109.30;61.17;;;;;;;;;;5081578;28;20394;-45
2024/02/01 07:18:43;;;;;;;103.85;60.45;;;;;;;;;;5072954;28;20028;-45
2024/02/01 07:21:29;;;;;;;109.82;59.60;;;;;;;;;;5072705;28;20064;-46
2024/02/01 07:24:17;;;;;;;110.35;61.95;;;;;;;;;;5072795;28;20389;-45
2024/02/01 07:26:54;;;;;;;111.78;63.30;;;;;;;;;;5071312;28;20034;-47
2024/02/01 07:59:48;;;;;;;78.38;46.80;;;;;;;;;;5092260;28;20074;-48
2024/02/01 08:02:25;;;;;;;70.22;42.65;;;;;;;;;;5092149;28;20535;-46
2024/02/01 08:07:48;;;;;;;77.32;43.50;;;;;;;;;;5092138;28;20036;-45
2024/02/01 08:10:18;;;;;;;74.32;41.20;;;;;;;;;;5091855;28;20051;-48
2024/02/01 08:12:46;;;;;;;68.30;40.78;;;;;;;;;;5092030;28;20460;-48
2024/02/01 08:15:18;;;;;;;64.22;39.05;;;;;;;;;;5090929;28;20059;-45
2024/02/01 08:17:46;;;;;;;71.45;39.92;;;;;;;;;;5092240;28;20038;-45
2024/02/01 08:20:13;;;;;;;75.28;41.28;;;;;;;;;;5091946;28;20028;-46
2024/02/01 08:22:41;;;;;;;79.00;42.80;;;;;;;;;;5091959;28;20028;-46
2024/02/01 08:25:16;;;;;;;73.95;41.17;;;;;;;;;;5091872;28;20028;-47
2024/02/01 08:27:55;;;;;;;70.55;40.55;;;;;;;;;;5091967;28;20571;-45
2024/02/01 08:30:22;;;;;;;75.70;42.28;;;;;;;;;;5091848;28;20024;-46
2024/02/01 08:32:49;;;;;;;72.65;41.22;;;;;;;;;;5091806;28;20082;-45
2024/02/01 08:35:15;;;;;;;71.53;40.65;;;;;;;;;;5091624;28;20131;-45
2024/02/01 08:37:41;;;;;;;71.07;40.80;;;;;;;;;;5091839;28;20069;-44
2024/02/01 08:40:17;;;;;;;75.23;39.73;;;;;;;;;;5090480;28;20024;-47
2024/02/01 08:42:48;;;;;;;73.22;41.47;;;;;;;;;;5091662;28;20028;-44
2024/02/01 08:45:52;;;;;;;73.97;41.10;;;;;;;;;;5091512;28;20114;-45
2024/02/01 08:48:20;;;;;;;74.93;42.45;;;;;;;;;;5081494;28;20085;-45
2024/02/01 08:50:46;;;;;;;77.47;42.70;;;;;;;;;;5081199;28;20040;-47
2024/02/01 08:53:17;;;;;;;72.40;41.50;;;;;;;;;;5071851;28;20037;-46
2024/02/01 08:55:45;;;;;;;72.55;40.10;;;;;;;;;;5075747;28;20481;-49
2024/02/01 08:58:11;;;;;;;60.97;38.88;;;;;;;;;;5075667;28;20103;-48
2024/02/01 09:00:44;;;;;;;70.57;39.83;;;;;;;;;;5075796;28;20089;-45
2024/02/01 09:03:17;;;;;;;83.93;42.97;;;;;;;;;;5075605;28;20032;-49
2024/02/01 09:05:48;;;;;;;62.45;39.38;;;;;;;;;;5075448;28;20117;-46
2024/02/01 09:08:24;;;;;;;65.28;38.55;;;;;;;;;;5075742;28;20101;-46
2024/02/01 09:10:57;;;;;;;65.25;37.92;;;;;;;;;;5075238;28;20495;-44
2024/02/01 09:13:25;;;;;;;63.80;38.92;;;;;;;;;;5075360;28;20383;-45
2024/02/01 09:15:52;;;;;;;61.55;38.83;;;;;;;;;;5075070;28;20371;-47
2024/02/01 09:18:19;;;;;;;64.72;37.40;;;;;;;;;;5075197;28;20386;-46
2024/02/01 09:20:46;;;;;;;63.33;36.72;;;;;;;;;;5074903;28;20051;-45
2024/02/01 09:23:12;;;;;;;68.00;38.55;;;;;;;;;;5074278;28;20044;-45
2024/02/01 09:25:40;;;;;;;72.13;40.90;;;;;;;;;;5072330;28;20031;-45
2024/02/01 09:28:11;;;;;;;71.32;40.50;;;;;;;;;;5074784;28;20024;-45
2024/02/01 09:30:38;;;;;;;69.18;38.33;;;;;;;;;;5074668;28;20103;-46
2024/02/01 09:33:05;;;;;;;62.03;37.75;;;;;;;;;;5073409;28;20036;-45
2024/02/01 09:35:31;;;;;;;73.07;45.10;;;;;;;;;;5074527;28;20078;-45
2024/02/01 09:37:57;;;;;;;66.03;40.63;;;;;;;;;;5073419;28;20335;-46
2024/02/01 09:40:24;;;;;;;70.10;40.78;;;;;;;;;;5074835;28;20095;-46
2024/02/01 09:42:51;;;;;;;63.38;39.53;;;;;;;;;;5073524;28;20052;-45
2024/02/01 09:45:28;;;;;;;71.30;40.65;;;;;;;;;;5073108;28;20041;-44
2024/02/01 09:47:57;;;;;;;67.87;42.97;;;;;;;;;;5074422;28;20038;-45
2024/02/01 09:50:23;;;;;;;77.55;41.72;;;;;;;;;;5074390;28;20250;-46
2024/02/01 09:52:51;;;;;;;66.50;41.47;;;;;;;;;;5074514;28;20024;-46
2024/02/01 09:55:18;;;;;;;69.35;41.47;;;;;;;;;;5074202;28;20107;-46
2024/02/01 09:57:48;;;;;;;68.68;39.45;;;;;;;;;;5074340;28;20033;-46
2024/02/01 10:00:18;;;;;;;65.78;38.22;;;;;;;;;;5072802;28;20505;-45
2024/02/01 10:02:48;;;;;;;71.53;41.45;;;;;;;;;;5074183;28;20036;-45
2024/02/01 10:05:15;;;;;;;77.13;43.67;;;;;;;;;;5056216;28;20390;-45
2024/02/01 10:07:41;;;;;;;77.40;43.38;;;;;;;;;;5072825;28;20029;-44
2024/02/01 10:10:11;;;;;;;74.40;41.10;;;;;;;;;;5074017;28;20550;-45
2024/02/01 10:12:38;;;;;;;69.35;41.20;;;;;;;;;;5072805;28;20394;-45
2024/02/01 10:15:10;;;;;;;69.97;41.20;;;;;;;;;;5073988;28;20040;-45
2024/02/01 10:17:45;;;;;;;68.90;43.45;;;;;;;;;;5073970;28;20064;-45
2024/02/01 10:20:33;;;;;;;71.32;40.47;;;;;;;;;;5072722;28;20033;-45
2024/02/01 10:23:03;;;;;;;69.43;41.50;;;;;;;;;;5074004;28;20055;-45
2024/02/01 10:25:33;;;;;;;73.95;46.45;;;;;;;;;;5072471;28;20039;-46
2024/02/01 10:28:01;;;;;;;79.18;41.67;;;;;;;;;;5072678;28;20097;-45
2024/02/01 10:30:27;;;;;;;68.18;43.45;;;;;;;;;;5073694;28;20031;-45
2024/02/01 10:32:55;;;;;;;78.43;43.67;;;;;;;;;;5072607;28;20036;-46
2024/02/01 10:35:21;;;;;;;79.70;45.05;;;;;;;;;;5073487;28;20451;-45
2024/02/01 10:37:50;;;;;;;69.60;43.28;;;;;;;;;;5073667;28;20110;-45
2024/02/01 10:40:18;;;;;;;68.78;43.47;;;;;;;;;;5073444;28;20035;-46
2024/02/01 10:42:45;;;;;;;66.40;40.83;;;;;;;;;;5072327;28;20039;-45
2024/02/01 10:45:13;;;;;;;77.38;46.53;;;;;;;;;;5072059;28;20517;-45
2024/02/01 10:47:43;;;;;;;65.50;41.80;;;;;;;;;;5073419;28;20034;-45
2024/02/01 10:50:10;;;;;;;85.25;44.47;;;;;;;;;;5073289;28;20025;-45
2024/02/01 10:52:37;;;;;;;75.18;46.95;;;;;;;;;;5071939;28;20025;-45
2024/02/01 10:55:09;;;;;;;;;;;;;;;;;;5072529;28;20020;-46
2024/02/01 10:57:42;;;;;;;64.70;42.15;;;;;;;;;;5071958;28;19912;-45
2024/02/01 11:00:19;;;;;;;72.45;45.30;;;;;;;;;;5071898;28;20079;-45
2024/02/01 11:02:50;;;;;;;75.88;45.95;;;;;;;;;;5073396;28;20422;-45
2024/02/01 11:05:17;;;;;;;71.05;44.47;;;;;;;;;;5071702;28;20529;-45
2024/02/01 11:07:43;;;;;;;66.20;43.10;;;;;;;;;;5073072;28;20514;-45
2024/02/01 11:10:14;;;;;;;66.95;39.70;;;;;;;;;;5071718;28;20074;-45
2024/02/01 11:12:41;;;;;;;68.47;42.28;;;;;;;;;;5076157;22;20067;-49
2024/02/01 11:15:16;;;;;;;68.15;45.20;;;;;;;;;;5070975;28;20055;-45
2024/02/01 11:17:43;;;;;;;73.07;45.45;;;;;;;;;;5072255;28;20536;-49
2024/02/01 11:20:10;;;;;;;65.38;42.53;;;;;;;;;;5072680;28;20481;-46
2024/02/01 11:22:40;;;;;;;75.05;43.55;;;;;;;;;;5011534;28;20549;-45
2024/02/01 11:25:06;;;;;;;70.65;42.22;;;;;;;;;;5064707;28;20031;-45
2024/02/01 11:27:36;;;;;;;69.33;43.80;;;;;;;;;;5070780;28;20432;-45
2024/02/01 11:30:19;;;;;;;71.38;43.05;;;;;;;;;;5053034;28;20028;-49
2024/02/01 11:32:46;;;;;;;64.20;43.22;;;;;;;;;;5051738;28;20210;-45
2024/02/01 11:35:15;;;;;;;59.97;40.30;;;;;;;;;;5033549;28;20461;-46
2024/02/01 11:37:41;;;;;;;59.15;39.58;;;;;;;;;;5036445;28;20032;-45
2024/02/01 11:40:15;;;;;;;64.88;41.38;;;;;;;;;;5049076;28;20036;-45
2024/02/01 11:42:47;;;;;;;63.47;40.45;;;;;;;;;;5040724;28;20059;-45
2024/02/01 11:45:17;;;;;;;67.60;40.78;;;;;;;;;;5039874;28;20090;-45
2024/02/01 11:47:43;;;;;;;65.03;42.08;;;;;;;;;;5056928;28;20044;-47
2024/02/01 11:50:10;;;;;;;70.25;45.80;;;;;;;;;;5053150;28;20021;-45
2024/02/01 11:52:43;;;;;;;60.83;41.27;;;;;;;;;;5063876;28;20071;-45
2024/02/01 11:55:10;;;;;;;68.78;42.95;;;;;;;;;;5070192;28;20712;-46
2024/02/01 11:57:48;;;;;;;68.72;43.75;;;;;;;;;;5052658;28;20103;-44
2024/02/01 12:00:16;;;;;;;;;;;;;;;;;;5054687;28;20029;-47
2024/02/01 12:02:45;;;;;;;76.53;44.53;;;;;;;;;;5043124;28;19913;-46
2024/02/01 12:05:12;;;;;;;73.45;46.28;;;;;;;;;;5050282;28;20044;-45
2024/02/01 12:07:41;;;;;;;69.00;41.65;;;;;;;;;;5032378;28;20390;-44
2024/02/01 12:10:11;;;;;;;60.08;40.05;;;;;;;;;;5054488;28;20075;-46
2024/02/01 12:12:44;;;;;;;62.67;41.17;;;;;;;;;;5045100;28;20036;-44
2024/02/01 12:15:11;;;;;;;61.22;39.72;;;;;;;;;;5069677;28;20107;-45
2024/02/01 12:17:45;;;;;;;69.90;43.60;;;;;;;;;;5069519;28;20028;-44
2024/02/01 12:20:11;;;;;;;72.00;41.17;;;;;;;;;;5069197;28;20021;-46
2024/02/01 12:22:37;;;;;;;60.47;39.55;;;;;;;;;;5069429;28;20020;-48
2024/02/01 12:25:04;;;;;;;65.03;41.03;;;;;;;;;;5051329;28;20398;-45
2024/02/01 12:27:30;;;;;;;61.85;40.72;;;;;;;;;;5051264;28;20025;-45
2024/02/01 12:29:57;;;;;;;62.65;42.97;;;;;;;;;;5052270;28;20514;-47
2024/02/01 12:32:26;;;;;;;57.90;38.83;;;;;;;;;;5069745;28;20021;-45
2024/02/01 12:34:52;;;;;;;65.45;41.30;;;;;;;;;;5087675;28;20060;-47
2024/02/01 12:37:18;;;;;;;62.77;41.37;;;;;;;;;;5088612;28;20035;-45
2024/02/01 12:39:44;;;;;;;59.25;38.88;;;;;;;;;;5069793;28;20117;-45
2024/02/01 12:42:14;;;;;;;58.90;38.50;;;;;;;;;;5069626;28;20489;-45
2024/02/01 12:44:41;;;;;;;65.82;40.33;;;;;;;;;;5069908;28;20037;-46
2024/02/01 12:47:07;;;;;;;55.05;37.28;;;;;;;;;;5069511;28;20039;-45
2024/02/01 12:49:33;;;;;;;60.28;39.08;;;;;;;;;;5069599;28;20039;-47
2024/02/01 12:52:04;;;;;;;59.38;40.13;;;;;;;;;;5069264;28;20511;-47
2024/02/01 12:54:38;;;;;;;63.72;41.35;;;;;;;;;;5069938;28;20034;-46
2024/02/01 12:57:04;;;;;;;63.53;38.88;;;;;;;;;;5069689;28;20399;-47
2024/02/01 12:59:30;;;;;;;62.83;39.90;;;;;;;;;;5052194;28;20116;-46
2024/02/01 13:01:57;;;;;;;57.72;38.28;;;;;;;;;;5069457;28;20021;-44
2024/02/01 13:04:24;;;;;;;64.55;40.38;;;;;;;;;;5051708;28;20033;-46
2024/02/01 13:06:50;;;;;;;62.25;39.28;;;;;;;;;;5069554;28;20592;-47
2024/02/01 13:09:28;;;;;;;63.78;39.00;;;;;;;;;;5069697;28;20053;-46
2024/02/01 13:11:58;;;;;;;66.95;39.45;;;;;;;;;;5069501;28;20509;-46
2024/02/01 13:14:30;;;;;;;65.45;41.00;;;;;;;;;;5069840;28;20086;-49
2024/02/01 13:16:59;;;;;;;58.42;37.53;;;;;;;;;;5070005;28;20490;-48
2024/02/01 13:19:25;;;;;;;59.78;40.42;;;;;;;;;;5071162;28;20033;-45
2024/02/01 13:21:52;;;;;;;57.90;38.72;;;;;;;;;;5071022;28;20028;-45
2024/02/01 13:24:19;;;;;;;55.72;37.72;;;;;;;;;;5070528;28;20537;-46
2024/02/01 13:26:47;;;;;;;69.13;43.50;;;;;;;;;;5052174;28;20085;-45
2024/02/01 13:29:14;;;;;;;69.03;40.75;;;;;;;;;;5070945;28;20078;-46
2024/02/01 13:31:45;;;;;;;62.97;39.75;;;;;;;;;;5071166;28;20466;-45
2024/02/01 13:34:11;;;;;;;57.90;38.38;;;;;;;;;;5070703;28;20099;-45
2024/02/01 13:36:38;;;;;;;62.33;40.72;;;;;;;;;;5070596;28;20032;-45
2024/02/01 13:39:05;;;;;;;61.03;40.33;;;;;;;;;;5072523;28;20024;-45
2024/02/01 13:41:33;;;;;;;65.32;42.55;;;;;;;;;;5074111;28;20024;-45
2024/02/01 13:43:59;;;;;;;67.20;41.28;;;;;;;;;;5074377;28;20495;-46
2024/02/01 13:46:26;;;;;;;59.25;40.20;;;;;;;;;;5073295;28;20111;-45
2024/02/01 13:48:53;;;;;;;67.10;41.30;;;;;;;;;;5074508;28;20131;-45
2024/02/01 13:51:20;;;;;;;68.82;41.22;;;;;;;;;;5074391;28;20028;-45
2024/02/01 13:53:46;;;;;;;70.60;43.13;;;;;;;;;;5056400;28;20013;-46
2024/02/01 13:56:13;;;;;;;68.35;43.47;;;;;;;;;;5074264;28;20028;-45
2024/02/01 13:58:39;;;;;;;65.90;43.42;;;;;;;;;;5074350;28;20479;-45
2024/02/01 14:01:05;;;;;;;67.53;41.90;;;;;;;;;;5056395;28;20036;-45
2024/02/01 14:03:31;;;;;;;73.32;44.60;;;;;;;;;;5074291;28;20038;-46
2024/02/01 14:05:57;;;;;;;73.07;44.28;;;;;;;;;;5074071;28;20072;-48
2024/02/01 14:08:24;;;;;;;66.00;44.03;;;;;;;;;;5074327;28;20028;-46
2024/02/01 14:10:52;;;;;;;80.20;47.40;;;;;;;;;;5074182;28;20168;-48
2024/02/01 14:13:18;;;;;;;76.60;46.30;;;;;;;;;;5073979;28;20060;-44
2024/02/01 14:15:45;;;;;;;70.38;49.13;;;;;;;;;;5073954;28;20103;-45
2024/02/01 14:18:11;;;;;;;73.95;46.25;;;;;;;;;;5074024;28;20428;-46
2024/02/01 14:20:37;;;;;;;68.05;45.90;;;;;;;;;;5074009;28;20028;-47
2024/02/01 14:23:03;;;;;;;72.32;45.80;;;;;;;;;;5055952;28;20127;-45
2024/02/01 14:25:29;;;;;;;74.82;48.30;;;;;;;;;;5073676;28;20157;-45
2024/02/01 14:27:55;;;;;;;76.03;47.97;;;;;;;;;;5073052;28;20058;-45
2024/02/01 14:30:22;;;;;;;71.22;46.85;;;;;;;;;;5055957;28;20047;-51
2024/02/01 14:32:48;;;;;;;72.97;45.72;;;;;;;;;;5073708;28;20062;-50
2024/02/01 14:35:15;;;;;;;71.63;48.30;;;;;;;;;;5073771;28;20504;-49
2024/02/01 14:37:44;;;;;;;65.10;44.27;;;;;;;;;;5073759;28;20073;-51
2024/02/01 14:40:10;;;;;;;74.47;47.83;;;;;;;;;;5073644;28;20021;-51
2024/02/01 14:42:39;;;;;;;79.40;47.87;;;;;;;;;;5072874;28;20094;-51
2024/02/01 14:45:06;;;;;;;77.60;48.17;;;;;;;;;;5071594;28;20399;-53
2024/02/01 14:47:33;;;;;;;71.85;44.42;;;;;;;;;;5071998;28;20033;-52
2024/02/01 14:49:59;;;;;;;74.53;45.00;;;;;;;;;;5072196;28;20030;-53
2024/02/01 14:52:28;;;;;;;76.35;46.72;;;;;;;;;;5072495;28;20013;-54
2024/02/01 14:54:55;;;;;;;72.85;48.97;;;;;;;;;;5074363;28;20467;-53
2024/02/01 14:57:21;;;;;;;79.75;49.25;;;;;;;;;;5053557;28;20051;-48
2024/02/01 14:59:47;;;;;;;74.37;48.63;;;;;;;;;;5054519;28;20059;-50
2024/02/01 15:02:14;;;;;;;70.22;44.92;;;;;;;;;;5054747;28;20033;-48
2024/02/01 15:04:40;;;;;;;69.63;45.40;;;;;;;;;;5073082;28;20390;-48
2024/02/01 15:07:06;;;;;;;75.82;48.45;;;;;;;;;;5072839;28;20029;-47